createdAt,value
2019-02-28T17:55:33.175Z,28.50
2019-02-28T17:56:33.265Z,31.70
2019-02-28T17:57:33.355Z,33.40
2019-02-28T17:58:33.451Z,34.50
2019-02-28T17:59:35.997Z,34.90
2019-02-28T18:00:33.636Z,38.40
2019-02-28T18:01:33.728Z,36.30
2019-02-28T18:02:33.830Z,34.70
2019-02-28T18:03:33.923Z,37.10
2019-02-28T18:04:34.039Z,35.90
2019-02-28T18:05:36.546Z,36.60
2019-02-28T18:06:34.212Z,36.00
2019-02-28T18:07:34.307Z,37.60
2019-02-28T18:08:37.687Z,37.50
2019-02-28T18:09:34.508Z,37.10
2019-02-28T18:10:34.604Z,37.60
2019-02-28T18:11:35.091Z,39.10
2019-02-28T18:12:34.797Z,39.60
2019-02-28T18:13:34.900Z,39.70
2019-02-28T18:14:34.991Z,39.20
2019-02-28T18:15:35.089Z,40.20
2019-02-28T18:16:35.193Z,40.40
2019-02-28T18:17:35.288Z,40.30
2019-02-28T18:18:35.381Z,41.70
2019-02-28T18:19:36.934Z,38.40
2019-02-28T18:20:35.575Z,38.60
2019-02-28T18:21:37.495Z,39.60
2019-02-28T18:22:35.775Z,39.90
2019-02-28T18:23:35.875Z,38.80
2019-02-28T18:24:37.971Z,37.70
2019-02-28T18:25:36.067Z,38.10
2019-02-28T18:26:39.224Z,39.10
2019-02-28T18:27:36.262Z,39.00
2019-02-28T18:28:36.360Z,39.40
2019-02-28T18:29:36.482Z,38.80
2019-02-28T18:30:36.574Z,38.30
2019-02-28T18:31:36.673Z,37.90
2019-02-28T18:32:36.773Z,37.80
2019-02-28T18:33:36.872Z,37.20
2019-02-28T18:34:36.965Z,38.00
2019-02-28T18:35:37.065Z,36.90
2019-02-28T18:36:40.229Z,37.60
2019-02-28T18:37:37.256Z,37.50
2019-02-28T18:38:37.351Z,36.40
2019-02-28T18:39:37.446Z,37.30
2019-02-28T18:40:37.545Z,35.20
2019-02-28T18:41:38.951Z,36.40
2019-02-28T18:42:37.743Z,36.50
2019-02-28T18:43:37.844Z,36.50
2019-02-28T18:44:41.165Z,36.60
2019-02-28T18:45:38.027Z,36.10
2019-02-28T18:46:38.106Z,36.00
2019-02-28T18:47:39.832Z,35.30
2019-02-28T18:48:38.293Z,36.50
2019-02-28T18:49:38.386Z,36.50
2019-02-28T18:50:38.483Z,35.70
2019-02-28T18:51:38.570Z,35.10
2019-02-28T18:52:38.664Z,35.00
2019-02-28T18:53:38.761Z,33.80
2019-02-28T18:54:39.427Z,34.60
2019-02-28T18:55:38.976Z,33.70
2019-02-28T18:56:39.073Z,34.20
2019-02-28T18:57:39.166Z,33.70
2019-02-28T18:58:39.259Z,33.50
2019-02-28T18:59:39.350Z,33.70
2019-02-28T19:00:39.436Z,32.50
2019-02-28T19:01:39.526Z,33.10
2019-02-28T19:02:39.647Z,32.60
2019-02-28T19:03:39.743Z,32.90
2019-02-28T19:04:39.838Z,33.10
2019-02-28T19:05:39.928Z,32.80
2019-02-28T19:06:40.019Z,32.30
2019-02-28T19:07:40.110Z,32.90
2019-02-28T19:08:40.201Z,32.20
2019-02-28T19:09:40.295Z,32.30
2019-02-28T19:10:40.386Z,32.20
2019-02-28T19:11:40.484Z,32.60
2019-02-28T19:12:40.570Z,32.30
2019-02-28T19:13:40.661Z,31.90
2019-02-28T19:14:40.755Z,31.10
2019-02-28T19:15:40.877Z,32.00
2019-02-28T19:16:40.962Z,32.30
2019-02-28T19:17:41.057Z,34.40
2019-02-28T19:18:41.150Z,36.30
2019-02-28T19:19:41.236Z,33.70
2019-02-28T19:20:41.333Z,33.10
2019-02-28T19:21:41.424Z,34.30
2019-02-28T19:22:41.511Z,34.00
2019-02-28T19:23:41.616Z,33.10
2019-02-28T19:24:41.707Z,33.40
2019-02-28T19:25:41.798Z,33.70
2019-02-28T19:26:41.888Z,33.60
2019-02-28T19:27:41.983Z,32.50
2019-02-28T19:28:42.101Z,31.30
2019-02-28T19:29:42.183Z,31.80
2019-02-28T19:30:42.274Z,30.60
2019-02-28T19:31:42.371Z,31.40
2019-02-28T19:32:42.463Z,31.00
2019-02-28T19:33:42.555Z,29.90
2019-02-28T19:34:42.654Z,29.40
2019-02-28T19:35:42.739Z,29.30
2019-02-28T19:36:42.838Z,30.00
2019-02-28T19:40:26.065Z,29.20
2019-02-28T19:41:26.154Z,29.80
2019-02-28T19:42:26.246Z,29.00
2019-02-28T19:43:26.338Z,32.70
2019-02-28T19:44:26.430Z,30.20
2019-02-28T19:45:26.518Z,28.20
2019-02-28T19:46:26.616Z,27.40
2019-02-28T19:47:26.708Z,28.10
2019-02-28T19:48:26.798Z,27.50
2019-02-28T19:49:26.889Z,26.30
2019-02-28T19:50:26.980Z,26.40
2019-02-28T19:51:27.076Z,27.70
2019-02-28T19:52:27.169Z,28.40
2019-02-28T19:53:27.258Z,28.50
2019-02-28T19:54:27.360Z,27.60
2019-02-28T19:55:27.445Z,29.60
2019-02-28T19:56:27.535Z,28.60
2019-02-28T19:57:27.624Z,28.10
2019-02-28T19:58:27.716Z,29.40
2019-02-28T19:59:27.806Z,29.50
2019-02-28T20:00:27.899Z,27.80
2019-02-28T20:01:27.988Z,29.50
2019-02-28T20:02:28.080Z,28.70
2019-02-28T20:03:28.178Z,27.40
2019-02-28T20:04:28.359Z,28.70
2019-02-28T20:05:28.326Z,29.00
2019-02-28T20:06:28.411Z,28.80
2019-02-28T20:07:28.504Z,29.00
2019-02-28T20:08:28.595Z,28.40
2019-02-28T20:09:28.686Z,28.30
2019-02-28T20:10:28.781Z,28.70
2019-02-28T20:11:28.874Z,29.00
2019-02-28T20:12:31.035Z,28.20
2019-02-28T20:13:29.051Z,28.30
2019-02-28T20:14:29.142Z,29.30
2019-02-28T20:15:29.236Z,29.20
2019-02-28T20:16:29.313Z,27.70
2019-02-28T20:17:29.412Z,27.20
2019-02-28T20:18:29.497Z,27.80
2019-02-28T20:19:29.589Z,28.10
2019-02-28T20:20:29.677Z,27.80
2019-02-28T20:21:29.760Z,28.30
2019-02-28T20:22:29.856Z,28.00
2019-02-28T20:23:29.945Z,25.70
2019-02-28T20:24:30.038Z,26.30
2019-02-28T20:25:30.131Z,25.40
2019-02-28T20:26:30.219Z,24.60
2019-02-28T20:27:30.308Z,25.60
2019-02-28T20:28:30.408Z,24.60
2019-02-28T20:29:30.494Z,23.30
2019-02-28T20:30:30.584Z,23.60
2019-02-28T20:31:30.682Z,22.90
2019-02-28T20:32:30.767Z,22.90
2019-02-28T20:33:30.862Z,22.80
2019-02-28T20:34:30.947Z,22.30
2019-02-28T20:35:31.039Z,22.50
2019-02-28T20:36:31.133Z,22.30
2019-02-28T20:37:34.318Z,21.30
2019-02-28T20:38:31.490Z,19.90
2019-02-28T20:39:31.420Z,20.60
2019-02-28T20:40:31.519Z,20.90
2019-02-28T20:41:31.607Z,19.80
2019-02-28T20:42:31.701Z,20.40
2019-02-28T20:43:31.796Z,19.70
2019-02-28T20:44:31.890Z,20.20
2019-02-28T20:45:31.976Z,20.30
2019-02-28T20:46:32.067Z,19.60
2019-02-28T20:47:32.158Z,20.10
2019-02-28T20:48:32.259Z,19.80
2019-02-28T20:49:32.352Z,18.40
2019-02-28T20:50:32.444Z,19.20
2019-02-28T20:51:32.532Z,18.20
2019-02-28T20:52:32.623Z,18.80
2019-02-28T20:53:32.713Z,18.10
2019-02-28T20:54:32.812Z,18.00
2019-02-28T20:55:32.914Z,17.60
2019-02-28T20:56:32.996Z,18.10
2019-02-28T20:57:33.089Z,18.20
2019-02-28T20:58:33.184Z,18.00
2019-02-28T20:59:33.297Z,18.20
2019-02-28T21:00:33.403Z,17.70
2019-02-28T21:01:33.488Z,18.20
2019-02-28T21:02:33.596Z,18.00
2019-02-28T21:03:33.738Z,18.10
2019-02-28T21:04:33.784Z,16.90
2019-02-28T21:05:33.873Z,16.80
2019-02-28T21:06:33.967Z,16.40
2019-02-28T21:07:34.077Z,15.50
2019-02-28T21:08:34.169Z,16.40
2019-02-28T21:09:34.262Z,16.00
2019-02-28T21:10:34.363Z,15.50
2019-02-28T21:11:34.520Z,15.30
2019-02-28T21:12:34.533Z,15.20
2019-02-28T21:13:34.805Z,15.40
2019-02-28T21:14:34.707Z,15.20
2019-02-28T21:15:34.799Z,14.20
2019-02-28T21:16:34.890Z,14.90
2019-02-28T21:17:34.982Z,14.90
2019-02-28T21:18:35.074Z,14.10
2019-02-28T21:19:35.165Z,14.30
2019-02-28T21:20:35.255Z,15.10
2019-02-28T21:21:35.347Z,14.40
2019-02-28T21:22:35.455Z,13.30
2019-02-28T21:23:35.744Z,14.40
2019-02-28T21:24:35.712Z,14.10
2019-02-28T21:25:35.802Z,15.30
2019-02-28T21:26:35.892Z,14.40
2019-02-28T21:27:35.987Z,13.80
2019-02-28T21:28:36.084Z,13.90
2019-02-28T21:29:36.170Z,14.70
2019-02-28T21:30:36.254Z,13.70
2019-02-28T21:31:36.349Z,13.70
2019-02-28T21:32:36.440Z,16.00
2019-02-28T21:33:36.534Z,14.80
2019-02-28T21:34:36.614Z,14.70
2019-02-28T21:35:36.707Z,15.10
2019-02-28T21:36:37.589Z,22.90
2019-02-28T21:37:36.879Z,18.10
2019-02-28T21:38:36.978Z,16.60
2019-02-28T21:39:37.062Z,17.20
2019-02-28T21:40:37.155Z,14.50
2019-02-28T21:41:37.260Z,15.70
2019-02-28T21:42:37.347Z,14.60
2019-02-28T21:43:37.442Z,14.00
2019-02-28T21:44:37.557Z,14.70
2019-02-28T21:45:37.689Z,14.40
2019-02-28T21:46:37.735Z,13.50
2019-02-28T21:47:37.846Z,13.20
2019-02-28T21:48:37.918Z,14.00
2019-02-28T21:49:38.013Z,15.20
2019-02-28T21:50:38.125Z,16.00
2019-02-28T21:51:38.206Z,17.00
2019-02-28T21:52:38.292Z,15.70
2019-02-28T21:53:38.382Z,15.30
2019-02-28T21:54:38.473Z,14.50
2019-02-28T21:55:38.563Z,15.90
2019-02-28T21:56:38.655Z,15.30
2019-02-28T21:57:38.748Z,15.70
2019-02-28T21:58:38.840Z,16.60
2019-02-28T21:59:38.957Z,16.70
2019-02-28T22:00:39.018Z,16.40
2019-02-28T22:01:39.111Z,15.20
2019-02-28T22:02:39.201Z,15.60
2019-02-28T22:03:39.297Z,15.20
2019-02-28T22:04:39.384Z,16.10
2019-02-28T22:05:39.496Z,16.50
2019-02-28T22:06:39.576Z,16.20
2019-02-28T22:07:39.680Z,15.90
2019-02-28T22:08:39.773Z,16.00
2019-02-28T22:09:39.865Z,16.40
2019-02-28T22:10:39.954Z,16.80
2019-02-28T22:11:40.045Z,16.70
2019-02-28T22:12:40.128Z,17.10
2019-02-28T22:13:40.230Z,16.40
2019-02-28T22:14:40.326Z,17.00
2019-02-28T22:15:40.410Z,16.00
2019-02-28T22:16:47.667Z,15.30
2019-02-28T22:17:40.628Z,16.10
2019-02-28T22:18:40.717Z,16.40
2019-02-28T22:19:40.807Z,16.90
2019-02-28T22:20:40.898Z,15.80
2019-02-28T22:21:40.987Z,15.90
2019-02-28T22:22:41.078Z,16.20
2019-02-28T22:23:41.169Z,15.70
2019-02-28T22:24:41.261Z,16.90
2019-02-28T22:25:41.351Z,16.00
2019-02-28T22:26:41.437Z,16.10
2019-02-28T22:27:41.531Z,16.60
2019-02-28T22:28:41.628Z,19.40
2019-02-28T22:29:41.710Z,18.00
2019-02-28T22:30:41.797Z,18.60
2019-02-28T22:31:41.887Z,17.60
2019-02-28T22:32:41.978Z,16.90
2019-02-28T22:33:42.072Z,16.80
2019-02-28T22:34:42.167Z,17.10
2019-02-28T22:35:42.276Z,18.40
2019-02-28T22:36:42.380Z,18.40
2019-02-28T22:37:42.474Z,19.50
2019-02-28T22:38:42.567Z,17.80
2019-02-28T22:39:42.657Z,18.10
2019-02-28T22:40:42.749Z,18.20
2019-02-28T22:41:42.835Z,18.70
2019-02-28T22:42:42.929Z,18.30
2019-02-28T22:43:43.019Z,18.90
2019-02-28T22:44:43.111Z,18.10
2019-02-28T22:45:43.199Z,18.60
2019-02-28T22:46:43.290Z,19.60
2019-02-28T22:47:43.384Z,18.40
2019-02-28T22:48:43.477Z,18.20
2019-02-28T22:49:43.568Z,17.30
2019-02-28T22:50:43.679Z,16.90
2019-02-28T22:51:43.768Z,16.30
2019-02-28T22:52:43.862Z,17.60
2019-02-28T22:53:43.951Z,18.90
2019-02-28T22:54:44.042Z,18.70
2019-02-28T22:55:44.141Z,19.20
2019-02-28T22:56:44.227Z,18.90
2019-02-28T22:57:44.313Z,19.50
2019-02-28T22:58:44.402Z,20.40
2019-02-28T22:59:44.490Z,19.00
2019-02-28T23:00:44.583Z,18.90
2019-02-28T23:01:44.673Z,18.90
2019-02-28T23:02:44.763Z,19.40
2019-02-28T23:03:44.854Z,19.60
2019-02-28T23:04:44.946Z,19.50
2019-02-28T23:05:45.036Z,19.70
2019-02-28T23:06:45.166Z,19.80
2019-02-28T23:07:45.217Z,20.80
2019-02-28T23:08:45.308Z,20.00
2019-02-28T23:09:45.406Z,20.50
2019-02-28T23:10:45.502Z,19.80
2019-02-28T23:11:45.593Z,19.60
2019-02-28T23:12:45.688Z,19.20
2019-02-28T23:13:45.810Z,18.50
2019-02-28T23:14:45.881Z,18.80
2019-02-28T23:15:45.964Z,18.30
2019-02-28T23:16:46.063Z,20.10
2019-02-28T23:17:46.153Z,19.30
2019-02-28T23:18:46.244Z,19.70
2019-02-28T23:19:46.337Z,20.40
2019-02-28T23:20:46.432Z,19.70
2019-02-28T23:21:46.515Z,19.00
2019-02-28T23:22:46.615Z,19.20
2019-02-28T23:23:46.715Z,19.50
2019-02-28T23:24:46.802Z,20.50
2019-02-28T23:25:46.892Z,19.30
2019-02-28T23:26:46.981Z,19.80
2019-02-28T23:27:47.071Z,19.40
2019-02-28T23:28:47.166Z,19.20
2019-02-28T23:29:48.648Z,19.20
2019-02-28T23:30:47.350Z,19.70
2019-02-28T23:31:47.439Z,18.30
2019-02-28T23:32:47.530Z,18.20
2019-02-28T23:33:47.618Z,17.80
2019-02-28T23:34:47.709Z,18.10
2019-02-28T23:35:47.800Z,18.20
2019-02-28T23:36:47.894Z,17.80
2019-02-28T23:37:48.004Z,16.50
2019-02-28T23:38:48.077Z,14.20
2019-02-28T23:39:48.172Z,13.60
2019-02-28T23:40:48.264Z,13.10
2019-02-28T23:41:48.353Z,12.40
2019-02-28T23:42:48.445Z,12.70
2019-02-28T23:43:48.552Z,12.20
2019-02-28T23:44:48.622Z,13.00
2019-02-28T23:45:48.714Z,11.90
2019-02-28T23:46:48.805Z,11.80
2019-02-28T23:47:48.898Z,12.70
2019-02-28T23:48:48.990Z,12.30
2019-02-28T23:49:49.078Z,13.50
2019-02-28T23:50:49.170Z,13.20
2019-02-28T23:51:49.259Z,14.30
2019-02-28T23:52:49.350Z,14.30
2019-02-28T23:53:49.442Z,14.40
2019-02-28T23:54:49.540Z,14.70
2019-02-28T23:55:49.625Z,14.80
2019-02-28T23:56:49.717Z,14.10
2019-02-28T23:57:49.814Z,14.60
2019-02-28T23:58:49.900Z,15.20
2019-02-28T23:59:49.987Z,14.90
